sensor_id;sensor_type;location;lat;lon;timestamp;pressure;altitude;pressure_sealevel;temperature;humidity
21728;BME280;11026;50.560;17.852;2023-04-30T00:00:16;99590.78;;;9.94;100.00
21728;BME280;11026;50.560;17.852;2023-04-30T00:02:43;99594.34;;;9.93;100.00
21728;BME280;11026;50.560;17.852;2023-04-30T00:05:10;99599.78;;;9.90;100.00
21728;BME280;11026;50.560;17.852;2023-04-30T00:07:37;99595.47;;;9.88;100.00
21728;BME280;11026;50.560;17.852;2023-04-30T00:10:11;99601.13;;;9.78;100.00
21728;BME280;11026;50.560;17.852;2023-04-30T00:12:39;99610.94;;;9.75;100.00
21728;BME280;11026;50.560;17.852;2023-04-30T00:15:07;99614.47;;;9.74;100.00
21728;BME280;11026;50.560;17.852;2023-04-30T00:17:35;99611.16;;;9.69;100.00
21728;BME280;11026;50.560;17.852;2023-04-30T00:20:03;99608.72;;;9.64;100.00
21728;BME280;11026;50.560;17.852;2023-04-30T00:22:31;99615.53;;;9.70;100.00
21728;BME280;11026;50.560;17.852;2023-04-30T00:24:59;99615.53;;;9.70;100.00
21728;BME280;11026;50.560;17.852;2023-04-30T00:27:29;99622.72;;;9.66;100.00
21728;BME280;11026;50.560;17.852;2023-04-30T00:29:57;99609.44;;;9.68;100.00
21728;BME280;11026;50.560;17.852;2023-04-30T00:32:27;99621.69;;;9.70;100.00
21728;BME280;11026;50.560;17.852;2023-04-30T00:34:54;99625.41;;;9.65;100.00
21728;BME280;11026;50.560;17.852;2023-04-30T00:37:23;99630.31;;;9.52;100.00
21728;BME280;11026;50.560;17.852;2023-04-30T00:39:50;99645.28;;;9.51;100.00
21728;BME280;11026;50.560;17.852;2023-04-30T00:42:19;99639.94;;;9.53;100.00
21728;BME280;11026;50.560;17.852;2023-04-30T00:44:47;99633.88;;;9.51;100.00
21728;BME280;11026;50.560;17.852;2023-04-30T00:47:14;99647.13;;;9.49;100.00
21728;BME280;11026;50.560;17.852;2023-04-30T00:49:42;99650.91;;;9.42;100.00
21728;BME280;11026;50.560;17.852;2023-04-30T00:52:10;99650.13;;;9.40;100.00
21728;BME280;11026;50.560;17.852;2023-04-30T00:54:38;99649.94;;;9.45;100.00
21728;BME280;11026;50.560;17.852;2023-04-30T00:57:06;99650.69;;;9.48;100.00
21728;BME280;11026;50.560;17.852;2023-04-30T00:59:35;99662.97;;;9.49;100.00
21728;BME280;11026;50.560;17.852;2023-04-30T01:02:03;99661.16;;;9.51;100.00
21728;BME280;11026;50.560;17.852;2023-04-30T01:04:30;99669.06;;;9.51;100.00
21728;BME280;11026;50.560;17.852;2023-04-30T01:06:59;99664.94;;;9.44;100.00
21728;BME280;11026;50.560;17.852;2023-04-30T01:09:29;99674.22;;;9.31;100.00
21728;BME280;11026;50.560;17.852;2023-04-30T01:14:44;99674.09;;;9.34;100.00
21728;BME280;11026;50.560;17.852;2023-04-30T01:17:32;99681.31;;;9.29;100.00
21728;BME280;11026;50.560;17.852;2023-04-30T01:20:02;99675.34;;;9.24;100.00
21728;BME280;11026;50.560;17.852;2023-04-30T01:25:34;99685.69;;;9.30;100.00
21728;BME280;11026;50.560;17.852;2023-04-30T01:28:08;99688.31;;;9.30;100.00
21728;BME280;11026;50.560;17.852;2023-04-30T01:30:37;99685.75;;;9.28;100.00
21728;BME280;11026;50.560;17.852;2023-04-30T01:33:07;99680.41;;;9.30;100.00
21728;BME280;11026;50.560;17.852;2023-04-30T01:44:28;99699.97;;;9.24;100.00
21728;BME280;11026;50.560;17.852;2023-04-30T01:47:08;99697.25;;;9.26;100.00
21728;BME280;11026;50.560;17.852;2023-04-30T01:49:57;99700.06;;;9.21;100.00
21728;BME280;11026;50.560;17.852;2023-04-30T01:52:41;99709.00;;;9.19;100.00
21728;BME280;11026;50.560;17.852;2023-04-30T01:55:23;99715.28;;;9.15;100.00
21728;BME280;11026;50.560;17.852;2023-04-30T01:58:01;99713.06;;;9.02;100.00
21728;BME280;11026;50.560;17.852;2023-04-30T02:00:32;99714.56;;;9.09;100.00
21728;BME280;11026;50.560;17.852;2023-04-30T02:02:59;99724.59;;;9.00;100.00
21728;BME280;11026;50.560;17.852;2023-04-30T02:05:27;99724.44;;;9.04;100.00
21728;BME280;11026;50.560;17.852;2023-04-30T02:07:56;99729.72;;;9.04;100.00
21728;BME280;11026;50.560;17.852;2023-04-30T02:10:25;99722.72;;;9.03;100.00
21728;BME280;11026;50.560;17.852;2023-04-30T02:12:53;99724.69;;;8.97;100.00
21728;BME280;11026;50.560;17.852;2023-04-30T02:15:21;99731.16;;;8.88;100.00
21728;BME280;11026;50.560;17.852;2023-04-30T02:17:49;99729.91;;;8.98;100.00
21728;BME280;11026;50.560;17.852;2023-04-30T02:20:16;99733.69;;;8.91;100.00
21728;BME280;11026;50.560;17.852;2023-04-30T02:22:44;99732.81;;;8.91;100.00
21728;BME280;11026;50.560;17.852;2023-04-30T02:25:13;99736.19;;;8.94;100.00
21728;BME280;11026;50.560;17.852;2023-04-30T02:27:41;99740.44;;;9.00;100.00
21728;BME280;11026;50.560;17.852;2023-04-30T02:30:08;99744.97;;;8.95;100.00
21728;BME280;11026;50.560;17.852;2023-04-30T02:32:36;99743.41;;;8.89;100.00
21728;BME280;11026;50.560;17.852;2023-04-30T02:35:09;99755.41;;;8.99;100.00
21728;BME280;11026;50.560;17.852;2023-04-30T02:37:37;99753.56;;;9.01;100.00
21728;BME280;11026;50.560;17.852;2023-04-30T02:40:05;99748.44;;;8.97;100.00
21728;BME280;11026;50.560;17.852;2023-04-30T02:42:33;99763.91;;;8.81;100.00
21728;BME280;11026;50.560;17.852;2023-04-30T02:45:01;99760.06;;;8.91;100.00
21728;BME280;11026;50.560;17.852;2023-04-30T02:47:29;99763.91;;;8.81;100.00
21728;BME280;11026;50.560;17.852;2023-04-30T02:49:56;99762.09;;;8.83;100.00
21728;BME280;11026;50.560;17.852;2023-04-30T02:52:25;99765.84;;;8.76;100.00
21728;BME280;11026;50.560;17.852;2023-04-30T02:54:54;99764.22;;;8.72;100.00
21728;BME280;11026;50.560;17.852;2023-04-30T02:57:21;99773.81;;;8.46;100.00
21728;BME280;11026;50.560;17.852;2023-04-30T02:59:49;99776.97;;;8.29;100.00
21728;BME280;11026;50.560;17.852;2023-04-30T03:02:16;99781.16;;;8.35;100.00
21728;BME280;11026;50.560;17.852;2023-04-30T03:04:48;99782.81;;;8.39;100.00
21728;BME280;11026;50.560;17.852;2023-04-30T03:07:16;99782.75;;;8.42;100.00
21728;BME280;11026;50.560;17.852;2023-04-30T03:09:44;99773.91;;;8.43;100.00
21728;BME280;11026;50.560;17.852;2023-04-30T03:12:13;99777.81;;;8.30;100.00
21728;BME280;11026;50.560;17.852;2023-04-30T03:14:41;99786.63;;;8.29;100.00
21728;BME280;11026;50.560;17.852;2023-04-30T03:17:14;99783.59;;;8.13;100.00
21728;BME280;11026;50.560;17.852;2023-04-30T03:19:43;99786.84;;;7.92;100.00
21728;BME280;11026;50.560;17.852;2023-04-30T03:22:12;99784.63;;;7.78;100.00
21728;BME280;11026;50.560;17.852;2023-04-30T03:24:39;99793.03;;;7.91;100.00
21728;BME280;11026;50.560;17.852;2023-04-30T03:27:07;99785.63;;;8.03;100.00
21728;BME280;11026;50.560;17.852;2023-04-30T03:29:34;99790.75;;;8.09;100.00
21728;BME280;11026;50.560;17.852;2023-04-30T03:32:02;99789.97;;;8.06;100.00
21728;BME280;11026;50.560;17.852;2023-04-30T03:34:30;99793.94;;;8.19;100.00
21728;BME280;11026;50.560;17.852;2023-04-30T03:36:58;99794.91;;;8.17;100.00
21728;BME280;11026;50.560;17.852;2023-04-30T03:39:27;99801.97;;;8.16;100.00
21728;BME280;11026;50.560;17.852;2023-04-30T03:41:55;99797.47;;;8.20;100.00
21728;BME280;11026;50.560;17.852;2023-04-30T03:44:22;99805.13;;;8.27;100.00
21728;BME280;11026;50.560;17.852;2023-04-30T03:46:49;99807.09;;;8.21;100.00
21728;BME280;11026;50.560;17.852;2023-04-30T03:49:17;99807.00;;;7.94;100.00
21728;BME280;11026;50.560;17.852;2023-04-30T03:51:51;99811.75;;;7.81;100.00
21728;BME280;11026;50.560;17.852;2023-04-30T03:54:19;99821.41;;;7.48;100.00
21728;BME280;11026;50.560;17.852;2023-04-30T03:56:47;99823.78;;;7.59;100.00
21728;BME280;11026;50.560;17.852;2023-04-30T03:59:15;99828.38;;;7.52;100.00
21728;BME280;11026;50.560;17.852;2023-04-30T04:01:42;99826.59;;;7.53;100.00
21728;BME280;11026;50.560;17.852;2023-04-30T04:04:09;99833.75;;;7.79;100.00
21728;BME280;11026;50.560;17.852;2023-04-30T04:06:37;99834.47;;;7.85;100.00
21728;BME280;11026;50.560;17.852;2023-04-30T04:09:11;99843.50;;;7.77;100.00
21728;BME280;11026;50.560;17.852;2023-04-30T04:11:38;99850.41;;;7.81;100.00
21728;BME280;11026;50.560;17.852;2023-04-30T04:14:06;99843.28;;;7.84;100.00
21728;BME280;11026;50.560;17.852;2023-04-30T04:16:33;99851.03;;;7.89;100.00
21728;BME280;11026;50.560;17.852;2023-04-30T04:19:03;99858.94;;;7.89;100.00
21728;BME280;11026;50.560;17.852;2023-04-30T04:21:30;99855.97;;;8.01;100.00
21728;BME280;11026;50.560;17.852;2023-04-30T04:23:58;99862.16;;;8.00;100.00
21728;BME280;11026;50.560;17.852;2023-04-30T04:26:27;99862.78;;;8.08;100.00
21728;BME280;11026;50.560;17.852;2023-04-30T04:28:55;99863.69;;;8.07;100.00
21728;BME280;11026;50.560;17.852;2023-04-30T04:31:23;99864.16;;;8.22;100.00
21728;BME280;11026;50.560;17.852;2023-04-30T04:33:50;99864.00;;;8.28;100.00
21728;BME280;11026;50.560;17.852;2023-04-30T04:36:25;99868.66;;;8.49;100.00
21728;BME280;11026;50.560;17.852;2023-04-30T04:38:54;99874.00;;;8.46;100.00
21728;BME280;11026;50.560;17.852;2023-04-30T04:41:23;99877.47;;;8.48;100.00
21728;BME280;11026;50.560;17.852;2023-04-30T04:43:52;99885.56;;;8.72;100.00
21728;BME280;11026;50.560;17.852;2023-04-30T04:46:20;99885.00;;;8.60;100.00
21728;BME280;11026;50.560;17.852;2023-04-30T04:48:48;99886.72;;;8.61;100.00
21728;BME280;11026;50.560;17.852;2023-04-30T04:51:17;99890.81;;;8.72;100.00
21728;BME280;11026;50.560;17.852;2023-04-30T04:53:45;99891.59;;;8.75;100.00
21728;BME280;11026;50.560;17.852;2023-04-30T04:56:13;99893.34;;;8.75;100.00
21728;BME280;11026;50.560;17.852;2023-04-30T04:58:41;99889.53;;;8.85;100.00
21728;BME280;11026;50.560;17.852;2023-04-30T05:01:08;99885.50;;;9.01;100.00
21728;BME280;11026;50.560;17.852;2023-04-30T05:03:36;99903.16;;;8.99;100.00
21728;BME280;11026;50.560;17.852;2023-04-30T05:06:04;99899.38;;;9.08;100.00
21728;BME280;11026;50.560;17.852;2023-04-30T05:08:31;99895.66;;;9.14;100.00
21728;BME280;11026;50.560;17.852;2023-04-30T05:10:59;99907.03;;;9.16;100.00
21728;BME280;11026;50.560;17.852;2023-04-30T05:13:26;99916.66;;;9.17;100.00
21728;BME280;11026;50.560;17.852;2023-04-30T05:15:54;99911.56;;;9.10;100.00
21728;BME280;11026;50.560;17.852;2023-04-30T05:18:28;99919.22;;;9.20;100.00
21728;BME280;11026;50.560;17.852;2023-04-30T05:20:56;99913.84;;;9.23;100.00
21728;BME280;11026;50.560;17.852;2023-04-30T05:23:23;99915.16;;;9.36;100.00
21728;BME280;11026;50.560;17.852;2023-04-30T05:25:58;99934.16;;;9.47;100.00
21728;BME280;11026;50.560;17.852;2023-04-30T05:28:25;99927.78;;;9.54;100.00
21728;BME280;11026;50.560;17.852;2023-04-30T05:30:53;99937.44;;;9.54;99.21
21728;BME280;11026;50.560;17.852;2023-04-30T05:33:20;99937.09;;;9.65;95.68
21728;BME280;11026;50.560;17.852;2023-04-30T05:35:48;99942.13;;;9.72;93.19
21728;BME280;11026;50.560;17.852;2023-04-30T05:38:15;99942.28;;;9.68;90.40
21728;BME280;11026;50.560;17.852;2023-04-30T05:40:43;99943.19;;;9.67;92.42
21728;BME280;11026;50.560;17.852;2023-04-30T05:43:12;99941.75;;;9.83;92.74
21728;BME280;11026;50.560;17.852;2023-04-30T05:45:40;99943.63;;;9.79;87.61
21728;BME280;11026;50.560;17.852;2023-04-30T05:48:07;99945.63;;;9.73;88.65
21728;BME280;11026;50.560;17.852;2023-04-30T05:50:35;99952.22;;;9.86;87.04
21728;BME280;11026;50.560;17.852;2023-04-30T05:53:02;99956.34;;;9.95;86.78
21728;BME280;11026;50.560;17.852;2023-04-30T05:55:31;99958.72;;;10.02;86.30
21728;BME280;11026;50.560;17.852;2023-04-30T05:57:58;99950.66;;;10.05;84.60
21728;BME280;11026;50.560;17.852;2023-04-30T06:00:26;99949.53;;;10.13;86.28
21728;BME280;11026;50.560;17.852;2023-04-30T06:02:54;99952.59;;;10.00;82.61
21728;BME280;11026;50.560;17.852;2023-04-30T06:05:21;99951.53;;;10.06;85.71
21728;BME280;11026;50.560;17.852;2023-04-30T06:07:50;99946.72;;;10.17;81.95
21728;BME280;11026;50.560;17.852;2023-04-30T06:10:18;99950.00;;;10.24;80.22
21728;BME280;11026;50.560;17.852;2023-04-30T06:12:47;99949.75;;;10.31;78.26
21728;BME280;11026;50.560;17.852;2023-04-30T06:15:14;99955.91;;;10.32;81.03
21728;BME280;11026;50.560;17.852;2023-04-30T06:17:42;99955.34;;;10.47;82.52
21728;BME280;11026;50.560;17.852;2023-04-30T06:20:11;99959.34;;;10.59;81.99
21728;BME280;11026;50.560;17.852;2023-04-30T06:22:40;99968.94;;;10.62;80.67
21728;BME280;11026;50.560;17.852;2023-04-30T06:25:08;99968.13;;;10.59;82.70
21728;BME280;11026;50.560;17.852;2023-04-30T06:27:37;99963.22;;;10.49;80.46
21728;BME280;11026;50.560;17.852;2023-04-30T06:30:06;99969.06;;;10.58;75.85
21728;BME280;11026;50.560;17.852;2023-04-30T06:32:33;99970.56;;;10.66;75.88
21728;BME280;11026;50.560;17.852;2023-04-30T06:35:02;99964.69;;;10.57;75.84
21728;BME280;11026;50.560;17.852;2023-04-30T06:37:31;99969.16;;;10.79;77.00
21728;BME280;11026;50.560;17.852;2023-04-30T06:40:05;99972.03;;;10.96;76.69
21728;BME280;11026;50.560;17.852;2023-04-30T06:42:33;99961.78;;;10.87;73.56
21728;BME280;11026;50.560;17.852;2023-04-30T06:45:02;99974.06;;;10.90;71.60
21728;BME280;11026;50.560;17.852;2023-04-30T06:47:30;99967.66;;;10.95;72.31
21728;BME280;11026;50.560;17.852;2023-04-30T06:50:03;99984.09;;;11.03;72.46
21728;BME280;11026;50.560;17.852;2023-04-30T06:52:31;99972.91;;;11.19;72.20
21728;BME280;11026;50.560;17.852;2023-04-30T06:55:00;99978.50;;;11.11;70.31
21728;BME280;11026;50.560;17.852;2023-04-30T06:57:29;99973.66;;;11.22;73.92
21728;BME280;11026;50.560;17.852;2023-04-30T06:59:56;99979.38;;;11.12;72.90
21728;BME280;11026;50.560;17.852;2023-04-30T07:02:25;99969.94;;;11.04;73.77
21728;BME280;11026;50.560;17.852;2023-04-30T07:04:53;99982.13;;;11.08;71.49
21728;BME280;11026;50.560;17.852;2023-04-30T07:07:28;99974.59;;;11.21;71.59
21728;BME280;11026;50.560;17.852;2023-04-30T07:09:58;99974.34;;;11.49;73.94
21728;BME280;11026;50.560;17.852;2023-04-30T07:12:25;99975.16;;;11.72;71.31
21728;BME280;11026;50.560;17.852;2023-04-30T07:14:56;99971.06;;;11.87;70.91
21728;BME280;11026;50.560;17.852;2023-04-30T07:17:23;99973.19;;;11.99;71.66
21728;BME280;11026;50.560;17.852;2023-04-30T07:19:53;99974.47;;;11.68;71.51
21728;BME280;11026;50.560;17.852;2023-04-30T07:22:22;99984.19;;;11.46;69.95
21728;BME280;11026;50.560;17.852;2023-04-30T07:24:50;99986.53;;;11.53;70.57
21728;BME280;11026;50.560;17.852;2023-04-30T07:27:18;99992.19;;;11.66;68.26
21728;BME280;11026;50.560;17.852;2023-04-30T07:29:45;99996.38;;;11.72;67.75
21728;BME280;11026;50.560;17.852;2023-04-30T07:32:13;99979.09;;;11.85;69.70
21728;BME280;11026;50.560;17.852;2023-04-30T07:34:43;99991.50;;;12.05;68.30
21728;BME280;11026;50.560;17.852;2023-04-30T07:37:11;99988.75;;;12.27;69.75
21728;BME280;11026;50.560;17.852;2023-04-30T07:39:39;99987.34;;;12.59;69.85
21728;BME280;11026;50.560;17.852;2023-04-30T07:42:07;99980.69;;;12.69;67.17
21728;BME280;11026;50.560;17.852;2023-04-30T07:44:36;99987.97;;;12.45;65.37
21728;BME280;11026;50.560;17.852;2023-04-30T07:47:04;99987.66;;;12.12;65.29
21728;BME280;11026;50.560;17.852;2023-04-30T07:49:31;99994.88;;;12.09;64.04
21728;BME280;11026;50.560;17.852;2023-04-30T07:51:59;99990.03;;;12.18;65.45
21728;BME280;11026;50.560;17.852;2023-04-30T07:54:27;99991.56;;;12.24;65.19
21728;BME280;11026;50.560;17.852;2023-04-30T07:57:01;99994.41;;;12.40;65.72
21728;BME280;11026;50.560;17.852;2023-04-30T07:59:31;99991.41;;;12.47;67.32
21728;BME280;11026;50.560;17.852;2023-04-30T08:02:01;100002.50;;;12.76;65.97
21728;BME280;11026;50.560;17.852;2023-04-30T08:04:28;100004.75;;;12.85;64.83
21728;BME280;11026;50.560;17.852;2023-04-30T08:06:56;100008.53;;;12.79;65.23
21728;BME280;11026;50.560;17.852;2023-04-30T08:09:25;99997.91;;;12.98;66.93
21728;BME280;11026;50.560;17.852;2023-04-30T08:11:53;100010.34;;;13.17;65.77
21728;BME280;11026;50.560;17.852;2023-04-30T08:14:20;99994.69;;;13.48;66.14
21728;BME280;11026;50.560;17.852;2023-04-30T08:16:48;100001.59;;;13.15;65.55
21728;BME280;11026;50.560;17.852;2023-04-30T08:19:15;100010.75;;;12.70;64.45
21728;BME280;11026;50.560;17.852;2023-04-30T08:21:47;100015.13;;;12.71;68.75
21728;BME280;11026;50.560;17.852;2023-04-30T08:24:14;100015.22;;;12.88;66.20
21728;BME280;11026;50.560;17.852;2023-04-30T08:26:42;100016.59;;;12.58;62.45
21728;BME280;11026;50.560;17.852;2023-04-30T08:29:09;100017.13;;;12.66;66.91
21728;BME280;11026;50.560;17.852;2023-04-30T08:31:39;100025.34;;;12.80;62.78
21728;BME280;11026;50.560;17.852;2023-04-30T08:34:06;100013.59;;;13.04;63.12
21728;BME280;11026;50.560;17.852;2023-04-30T08:36:33;100015.41;;;13.23;65.30
21728;BME280;11026;50.560;17.852;2023-04-30T08:39:01;100022.19;;;13.10;61.25
21728;BME280;11026;50.560;17.852;2023-04-30T08:41:31;100021.59;;;13.22;62.45
21728;BME280;11026;50.560;17.852;2023-04-30T08:44:02;100026.13;;;13.58;63.71
21728;BME280;11026;50.560;17.852;2023-04-30T08:46:34;100025.72;;;13.84;62.35
21728;BME280;11026;50.560;17.852;2023-04-30T08:49:05;100028.00;;;13.92;60.70
21728;BME280;11026;50.560;17.852;2023-04-30T08:51:35;100020.72;;;13.78;59.75
21728;BME280;11026;50.560;17.852;2023-04-30T08:54:11;100025.75;;;13.29;59.27
21728;BME280;11026;50.560;17.852;2023-04-30T08:56:39;100028.56;;;13.05;58.31
21728;BME280;11026;50.560;17.852;2023-04-30T08:59:07;100031.50;;;13.18;58.55
21728;BME280;11026;50.560;17.852;2023-04-30T09:01:36;100031.16;;;13.64;59.45
21728;BME280;11026;50.560;17.852;2023-04-30T09:04:05;100032.22;;;13.78;62.38
21728;BME280;11026;50.560;17.852;2023-04-30T09:06:33;100029.75;;;13.57;57.36
21728;BME280;11026;50.560;17.852;2023-04-30T09:09:14;100033.00;;;13.44;57.85
21728;BME280;11026;50.560;17.852;2023-04-30T09:11:44;100039.72;;;13.14;57.83
21728;BME280;11026;50.560;17.852;2023-04-30T09:14:11;100028.00;;;13.18;58.10
21728;BME280;11026;50.560;17.852;2023-04-30T09:16:47;100020.50;;;13.46;56.96
21728;BME280;11026;50.560;17.852;2023-04-30T09:19:29;100032.47;;;13.55;57.27
21728;BME280;11026;50.560;17.852;2023-04-30T09:21:58;100028.78;;;13.58;55.79
21728;BME280;11026;50.560;17.852;2023-04-30T09:24:26;100035.25;;;13.71;55.69
21728;BME280;11026;50.560;17.852;2023-04-30T09:27:20;100032.50;;;14.26;55.75
21728;BME280;11026;50.560;17.852;2023-04-30T09:29:48;100028.91;;;14.62;55.21
21728;BME280;11026;50.560;17.852;2023-04-30T09:32:22;100032.91;;;14.86;54.59
21728;BME280;11026;50.560;17.852;2023-04-30T09:34:49;100038.25;;;14.86;51.83
21728;BME280;11026;50.560;17.852;2023-04-30T09:37:18;100034.63;;;14.87;51.36
21728;BME280;11026;50.560;17.852;2023-04-30T09:39:59;100033.50;;;14.91;52.62
21728;BME280;11026;50.560;17.852;2023-04-30T09:42:27;100036.31;;;15.06;52.99
21728;BME280;11026;50.560;17.852;2023-04-30T09:44:54;100016.81;;;14.72;51.42
21728;BME280;11026;50.560;17.852;2023-04-30T09:47:29;100041.41;;;14.77;51.85
21728;BME280;11026;50.560;17.852;2023-04-30T09:49:59;100036.00;;;14.79;52.41
21728;BME280;11026;50.560;17.852;2023-04-30T09:52:26;100029.88;;;15.41;51.90
21728;BME280;11026;50.560;17.852;2023-04-30T09:54:54;100023.19;;;15.66;50.68
21728;BME280;11026;50.560;17.852;2023-04-30T09:57:22;100029.03;;;15.88;49.04
21728;BME280;11026;50.560;17.852;2023-04-30T09:59:52;100037.22;;;15.99;47.18
21728;BME280;11026;50.560;17.852;2023-04-30T10:02:21;100028.34;;;15.53;46.89
21728;BME280;11026;50.560;17.852;2023-04-30T10:04:55;100023.59;;;15.58;50.48
21728;BME280;11026;50.560;17.852;2023-04-30T10:07:30;100029.31;;;15.68;48.45
21728;BME280;11026;50.560;17.852;2023-04-30T10:10:03;100017.81;;;15.97;47.78
21728;BME280;11026;50.560;17.852;2023-04-30T10:12:38;100005.78;;;16.20;48.07
21728;BME280;11026;50.560;17.852;2023-04-30T10:15:27;100021.78;;;15.90;46.26
21728;BME280;11026;50.560;17.852;2023-04-30T10:18:04;100015.94;;;16.14;46.51
21728;BME280;11026;50.560;17.852;2023-04-30T10:20:34;100018.22;;;16.36;47.64
21728;BME280;11026;50.560;17.852;2023-04-30T10:23:05;100005.97;;;16.76;47.62
21728;BME280;11026;50.560;17.852;2023-04-30T10:25:37;100005.84;;;17.06;44.55
21728;BME280;11026;50.560;17.852;2023-04-30T10:28:07;100003.75;;;16.97;46.89
21728;BME280;11026;50.560;17.852;2023-04-30T10:30:35;100006.16;;;17.02;44.74
21728;BME280;11026;50.560;17.852;2023-04-30T10:36:06;100006.31;;;16.70;47.22
21728;BME280;11026;50.560;17.852;2023-04-30T10:38:36;100000.63;;;17.05;46.75
21728;BME280;11026;50.560;17.852;2023-04-30T10:41:05;100015.97;;;16.72;42.46
21728;BME280;11026;50.560;17.852;2023-04-30T10:43:35;100013.09;;;16.17;44.55
21728;BME280;11026;50.560;17.852;2023-04-30T10:46:02;100002.41;;;16.61;45.51
21728;BME280;11026;50.560;17.852;2023-04-30T10:48:37;100003.72;;;17.26;47.08
21728;BME280;11026;50.560;17.852;2023-04-30T10:51:04;99998.06;;;17.72;44.21
21728;BME280;11026;50.560;17.852;2023-04-30T10:53:35;100002.13;;;17.91;44.16
21728;BME280;11026;50.560;17.852;2023-04-30T10:56:05;99992.75;;;18.24;42.41
21728;BME280;11026;50.560;17.852;2023-04-30T10:58:39;99989.56;;;18.19;42.57
21728;BME280;11026;50.560;17.852;2023-04-30T11:01:15;100001.03;;;18.47;43.59
21728;BME280;11026;50.560;17.852;2023-04-30T11:04:04;99996.84;;;18.68;41.71
21728;BME280;11026;50.560;17.852;2023-04-30T11:07:09;100001.13;;;18.45;39.68
21728;BME280;11026;50.560;17.852;2023-04-30T11:09:42;100002.16;;;18.04;42.14
21728;BME280;11026;50.560;17.852;2023-04-30T11:12:20;100001.34;;;17.21;43.91
21728;BME280;11026;50.560;17.852;2023-04-30T11:15:10;100003.81;;;17.65;44.10
21728;BME280;11026;50.560;17.852;2023-04-30T11:17:38;99994.72;;;18.48;43.43
21728;BME280;11026;50.560;17.852;2023-04-30T11:20:07;99993.44;;;18.66;40.36
21728;BME280;11026;50.560;17.852;2023-04-30T11:22:38;100003.75;;;18.98;40.39
21728;BME280;11026;50.560;17.852;2023-04-30T11:25:09;100004.28;;;19.39;38.88
21728;BME280;11026;50.560;17.852;2023-04-30T11:27:44;99997.78;;;19.55;38.49
21728;BME280;11026;50.560;17.852;2023-04-30T11:30:15;100001.53;;;19.65;40.18
21728;BME280;11026;50.560;17.852;2023-04-30T11:32:45;100009.16;;;19.58;39.56
21728;BME280;11026;50.560;17.852;2023-04-30T11:35:16;100003.16;;;19.18;39.99
21728;BME280;11026;50.560;17.852;2023-04-30T11:37:54;99998.69;;;19.06;40.14
21728;BME280;11026;50.560;17.852;2023-04-30T11:40:22;100007.34;;;19.22;40.04
21728;BME280;11026;50.560;17.852;2023-04-30T11:42:50;100004.09;;;19.90;40.34
21728;BME280;11026;50.560;17.852;2023-04-30T11:45:18;100007.88;;;20.12;39.39
21728;BME280;11026;50.560;17.852;2023-04-30T11:47:51;100011.00;;;20.06;38.39
21728;BME280;11026;50.560;17.852;2023-04-30T11:50:27;100003.97;;;20.51;38.84
21728;BME280;11026;50.560;17.852;2023-04-30T11:52:58;99997.00;;;21.27;37.85
21728;BME280;11026;50.560;17.852;2023-04-30T11:55:31;100004.94;;;21.51;37.45
21728;BME280;11026;50.560;17.852;2023-04-30T11:57:59;100008.69;;;20.48;37.13
21728;BME280;11026;50.560;17.852;2023-04-30T12:00:30;100004.09;;;20.26;38.42
21728;BME280;11026;50.560;17.852;2023-04-30T12:02:59;100002.78;;;20.43;36.63
21728;BME280;11026;50.560;17.852;2023-04-30T12:05:27;100006.56;;;20.29;38.42
21728;BME280;11026;50.560;17.852;2023-04-30T12:07:56;100004.72;;;20.29;37.14
21728;BME280;11026;50.560;17.852;2023-04-30T12:10:25;99996.22;;;20.47;36.83
21728;BME280;11026;50.560;17.852;2023-04-30T12:12:55;99993.38;;;20.95;38.26
21728;BME280;11026;50.560;17.852;2023-04-30T12:15:25;99991.41;;;20.85;36.24
21728;BME280;11026;50.560;17.852;2023-04-30T12:17:55;99996.53;;;21.00;37.65
21728;BME280;11026;50.560;17.852;2023-04-30T12:20:26;99997.75;;;21.18;36.34
21728;BME280;11026;50.560;17.852;2023-04-30T12:22:56;99994.69;;;21.45;34.35
21728;BME280;11026;50.560;17.852;2023-04-30T12:25:27;99989.09;;;21.69;36.04
21728;BME280;11026;50.560;17.852;2023-04-30T12:27:57;99991.78;;;21.69;34.55
21728;BME280;11026;50.560;17.852;2023-04-30T12:30:28;99988.97;;;21.82;35.21
21728;BME280;11026;50.560;17.852;2023-04-30T12:32:58;99991.03;;;22.10;34.34
21728;BME280;11026;50.560;17.852;2023-04-30T12:35:28;99983.63;;;22.45;34.95
21728;BME280;11026;50.560;17.852;2023-04-30T12:38:02;99992.72;;;22.23;34.08
21728;BME280;11026;50.560;17.852;2023-04-30T12:40:33;99987.81;;;21.84;34.80
21728;BME280;11026;50.560;17.852;2023-04-30T12:43:04;99986.41;;;22.33;34.61
21728;BME280;11026;50.560;17.852;2023-04-30T12:46:02;99983.00;;;21.99;35.12
21728;BME280;11026;50.560;17.852;2023-04-30T12:48:45;99985.06;;;22.07;33.38
21728;BME280;11026;50.560;17.852;2023-04-30T12:51:18;99979.81;;;22.05;33.84
21728;BME280;11026;50.560;17.852;2023-04-30T12:53:48;99983.34;;;22.06;33.78
21728;BME280;11026;50.560;17.852;2023-04-30T12:56:16;99988.38;;;21.99;34.99
21728;BME280;11026;50.560;17.852;2023-04-30T12:58:46;99969.25;;;22.34;33.71
21728;BME280;11026;50.560;17.852;2023-04-30T13:01:20;99971.56;;;22.18;33.99
21728;BME280;11026;50.560;17.852;2023-04-30T13:03:51;99974.78;;;22.01;33.82
21728;BME280;11026;50.560;17.852;2023-04-30T13:06:23;99971.34;;;21.12;34.08
21728;BME280;11026;50.560;17.852;2023-04-30T13:08:53;99973.56;;;20.84;35.75
21728;BME280;11026;50.560;17.852;2023-04-30T13:11:24;99968.88;;;21.20;34.61
21728;BME280;11026;50.560;17.852;2023-04-30T13:13:54;99983.06;;;21.22;34.25
21728;BME280;11026;50.560;17.852;2023-04-30T13:16:23;99976.72;;;21.23;34.70
21728;BME280;11026;50.560;17.852;2023-04-30T13:18:51;99974.47;;;21.62;33.62